Twin Hills, Oklahoma
Current Conditions -  °F | °C
As of 12:55 PM on Wednesday 26 Nov 2014 (Local Time) from KOKM Reporting Station
Scattered Clouds Scattered Clouds  
Wind Chill: 55°   Ceiling: Unl
Heat Index: 55°   Visibility: 10mi
Dew Point: 31°   Wind: 17mph
Humidity: 39%   Direction: 290°WNW
Pressure: 30.13"   Gusts: 29mph
Location:  35.6454°N, 96.0285°W
Report Text: KOKM 261855Z AUTO 29015G25KT 10SM SCT120 13/M01 A3013 RMK AO2 T01291007
Loading
Personal Weather Stations






























Interactive Weather Map New forecast layout! Learn more

10-Day Weather Forecast

Advertisements
Track Severe Weather on mobile